createdAt,value
2017-05-11T00:00:08.347Z,1002.2
2017-05-11T00:00:48.929Z,1002.19
2017-05-11T00:01:29.516Z,1002.19
2017-05-11T00:02:10.108Z,1002.22
2017-05-11T00:02:50.723Z,1002.18
2017-05-11T00:03:31.301Z,1002.18
2017-05-11T00:04:11.880Z,1002.18
2017-05-11T00:04:52.454Z,1002.2
2017-05-11T00:05:33.039Z,1002.2
2017-05-11T00:06:13.643Z,1002.2
2017-05-11T00:06:54.261Z,1002.17
2017-05-11T00:07:34.867Z,1002.18
2017-05-11T00:08:15.440Z,1002.17
2017-05-11T00:08:56.023Z,1002.17
2017-05-11T00:09:36.618Z,1002.2
2017-05-11T00:10:17.224Z,1002.14
2017-05-11T00:10:57.797Z,1002.16
2017-05-11T00:11:38.393Z,1002.16
2017-05-11T00:12:18.981Z,1002.14
2017-05-11T00:12:59.561Z,1002.16
2017-05-11T00:13:40.190Z,1002.16
2017-05-11T00:14:20.759Z,1002.15
2017-05-11T00:15:01.355Z,1002.18
2017-05-11T00:15:41.988Z,1002.18
2017-05-11T00:16:22.605Z,1002.12
2017-05-11T00:17:03.213Z,1002.16
2017-05-11T00:17:43.789Z,1002.14
2017-05-11T00:18:24.381Z,1002.14
2017-05-11T00:19:04.967Z,1002.15
2017-05-11T00:19:45.591Z,1002.14
2017-05-11T00:20:26.171Z,1002.16
2017-05-11T00:21:06.754Z,1002.15
2017-05-11T00:21:47.341Z,1002.13
2017-05-11T00:22:27.925Z,1002.13
2017-05-11T00:23:08.527Z,1002.09
2017-05-11T00:23:49.189Z,1002.14
2017-05-11T00:24:29.858Z,1002.11
2017-05-11T00:25:10.967Z,1002.14
2017-05-11T00:25:51.622Z,1002.09
2017-05-11T00:26:32.204Z,1002.16
2017-05-11T00:27:12.770Z,1002.08
2017-05-11T00:27:53.404Z,1002.07
2017-05-11T00:28:34.019Z,1002.09
2017-05-11T00:29:14.600Z,1002.09
2017-05-11T00:29:55.187Z,1002.1
2017-05-11T00:30:35.761Z,1002.05
2017-05-11T00:31:16.325Z,1002.06
2017-05-11T00:31:56.903Z,1002.05
2017-05-11T00:32:37.475Z,1002.04
2017-05-11T00:33:18.042Z,1001.99
2017-05-11T00:33:58.637Z,1002.05
2017-05-11T00:34:43.065Z,1002.01
2017-05-11T00:35:23.639Z,1002.01
2017-05-11T00:36:04.213Z,1002
2017-05-11T00:36:44.829Z,1002
2017-05-11T00:37:25.424Z,1002
2017-05-11T00:38:06.031Z,1002.02
2017-05-11T00:38:46.636Z,1002
2017-05-11T00:39:27.202Z,1002.04
2017-05-11T00:40:07.790Z,1002
2017-05-11T00:40:48.375Z,1002.07
2017-05-11T00:41:28.967Z,1002.04
2017-05-11T00:42:10.546Z,1002.03
2017-05-11T00:42:51.120Z,1002.03
2017-05-11T00:43:31.707Z,1002.06
2017-05-11T00:44:12.327Z,1002.06
2017-05-11T00:44:52.919Z,1002.01
2017-05-11T00:45:33.507Z,1002.07
2017-05-11T00:46:14.123Z,1002.07
2017-05-11T00:46:54.699Z,1002.01
2017-05-11T00:47:35.298Z,1002.03
2017-05-11T00:48:15.872Z,1002.12
2017-05-11T00:48:56.454Z,1002.03
2017-05-11T00:49:37.044Z,1002.08
2017-05-11T00:50:17.626Z,1002.06
2017-05-11T00:50:58.258Z,1002.1
2017-05-11T00:51:38.837Z,1002.1
2017-05-11T00:52:19.423Z,1002.1
2017-05-11T00:53:00.027Z,1002.11
2017-05-11T00:53:40.618Z,1002.1
2017-05-11T00:54:21.212Z,1002.09
2017-05-11T00:55:01.787Z,1002.09
2017-05-11T00:55:42.407Z,1002.1
2017-05-11T00:56:22.977Z,1002.07
2017-05-11T00:57:03.554Z,1002.09
2017-05-11T00:57:44.143Z,1002.09
2017-05-11T00:58:24.742Z,1002.07
2017-05-11T00:59:05.323Z,1002.04
2017-05-11T00:59:45.952Z,1002.05
2017-05-11T01:00:26.542Z,1002.05
2017-05-11T01:01:07.114Z,1002.05
2017-05-11T01:01:47.715Z,1002.06
2017-05-11T01:02:28.399Z,1002.07
2017-05-11T01:03:08.960Z,1002.07
2017-05-11T01:03:49.551Z,1002.04
2017-05-11T01:04:30.141Z,1002.07
2017-05-11T01:05:10.762Z,1002.11
2017-05-11T01:05:51.364Z,1002.09
2017-05-11T01:06:32.007Z,1002.02
2017-05-11T01:07:12.634Z,1002.01
2017-05-11T01:07:53.225Z,1002.05
2017-05-11T01:08:33.807Z,1002.05
2017-05-11T01:09:14.379Z,1002.06
2017-05-11T01:09:54.952Z,1002.03
2017-05-11T01:10:35.557Z,1002.07
2017-05-11T01:11:16.157Z,1002.04
2017-05-11T01:11:56.727Z,1002.05
2017-05-11T01:12:37.296Z,1002.07
2017-05-11T01:13:17.868Z,1002.04
2017-05-11T01:13:58.438Z,1002.04
2017-05-11T01:14:39.023Z,1002.06
2017-05-11T01:15:19.623Z,1002.05
2017-05-11T01:16:00.249Z,1002.02
2017-05-11T01:16:40.815Z,1002.03
2017-05-11T01:17:21.426Z,1002.05
2017-05-11T01:18:02.047Z,1002.04
2017-05-11T01:18:42.617Z,1002.01
2017-05-11T01:19:23.198Z,1002
2017-05-11T01:20:03.773Z,1001.98
2017-05-11T01:20:44.365Z,1001.96
2017-05-11T01:21:24.941Z,1001.96
2017-05-11T01:22:05.543Z,1001.97
2017-05-11T01:22:46.139Z,1001.94
2017-05-11T01:23:26.705Z,1001.97
2017-05-11T01:24:07.286Z,1001.97
2017-05-11T01:24:47.892Z,1001.94
2017-05-11T01:25:28.466Z,1001.96
2017-05-11T01:26:09.060Z,1001.94
2017-05-11T01:26:49.760Z,1001.95
2017-05-11T01:27:30.397Z,1001.93
2017-05-11T01:28:11.027Z,1001.97
2017-05-11T01:28:51.587Z,1001.94
2017-05-11T01:29:32.168Z,1001.91
2017-05-11T01:30:12.758Z,1001.89
2017-05-11T01:30:53.359Z,1001.89
2017-05-11T01:31:33.950Z,1001.89
2017-05-11T01:32:14.655Z,1001.88
2017-05-11T01:32:55.262Z,1001.86
2017-05-11T01:33:35.833Z,1001.88
2017-05-11T01:34:16.437Z,1001.84
2017-05-11T01:34:57.029Z,1001.85
2017-05-11T01:35:37.653Z,1001.83
2017-05-11T01:36:18.221Z,1001.84
2017-05-11T01:36:58.816Z,1001.85
2017-05-11T01:37:39.411Z,1001.87
2017-05-11T01:38:19.975Z,1001.85
2017-05-11T01:39:00.573Z,1001.84
2017-05-11T01:39:41.197Z,1001.83
2017-05-11T01:40:21.815Z,1001.86
2017-05-11T01:41:02.397Z,1001.82
2017-05-11T01:41:43.014Z,1001.83
2017-05-11T01:42:23.593Z,1001.87
2017-05-11T01:43:04.214Z,1001.79
2017-05-11T01:43:44.811Z,1001.82
2017-05-11T01:44:25.406Z,1001.82
2017-05-11T01:45:05.992Z,1001.86
2017-05-11T01:45:46.589Z,1001.82
2017-05-11T01:46:27.177Z,1001.86
2017-05-11T01:47:07.750Z,1001.85
2017-05-11T01:47:48.343Z,1001.84
2017-05-11T01:48:29.010Z,1001.82
2017-05-11T01:49:09.589Z,1001.82
2017-05-11T01:49:50.178Z,1001.84
2017-05-11T01:50:30.746Z,1001.84
2017-05-11T01:51:11.324Z,1001.87
2017-05-11T01:51:51.922Z,1001.84
2017-05-11T01:52:32.501Z,1001.83
2017-05-11T01:53:13.080Z,1001.82
2017-05-11T01:53:53.656Z,1001.82
2017-05-11T01:54:34.368Z,1001.86
2017-05-11T01:55:14.929Z,1001.81
2017-05-11T01:55:55.510Z,1001.79
2017-05-11T01:56:36.093Z,1001.83
2017-05-11T01:57:16.703Z,1001.82
2017-05-11T01:57:57.281Z,1001.82
2017-05-11T01:58:37.864Z,1001.83
2017-05-11T01:59:18.440Z,1001.83
2017-05-11T01:59:59.070Z,1001.78
2017-05-11T02:00:39.655Z,1001.79
2017-05-11T02:01:20.222Z,1001.81
2017-05-11T02:02:00.814Z,1001.81
2017-05-11T02:02:41.427Z,1001.75
2017-05-11T02:03:21.991Z,1001.73
2017-05-11T02:04:02.605Z,1001.73
2017-05-11T02:04:43.209Z,1001.78
2017-05-11T02:05:23.798Z,1001.78
2017-05-11T02:06:04.366Z,1001.76
2017-05-11T02:06:44.951Z,1001.74
2017-05-11T02:07:25.576Z,1001.75
2017-05-11T02:08:06.179Z,1001.79
2017-05-11T02:08:46.777Z,1001.77
2017-05-11T02:09:27.355Z,1001.76
2017-05-11T02:10:07.947Z,1001.79
2017-05-11T02:10:48.562Z,1001.77
2017-05-11T02:11:29.171Z,1001.78
2017-05-11T02:12:09.780Z,1001.76
2017-05-11T02:12:50.353Z,1001.82
2017-05-11T02:13:30.949Z,1001.81
2017-05-11T02:14:11.565Z,1001.77
2017-05-11T02:14:52.151Z,1001.84
2017-05-11T02:15:32.770Z,1001.77
2017-05-11T02:16:13.354Z,1001.77
2017-05-11T02:16:53.956Z,1001.74
2017-05-11T02:17:34.520Z,1001.74
2017-05-11T02:18:15.103Z,1001.76
2017-05-11T02:18:55.690Z,1001.75
2017-05-11T02:19:36.306Z,1001.72
2017-05-11T02:20:16.908Z,1001.73
2017-05-11T02:20:57.473Z,1001.72
2017-05-11T02:21:38.067Z,1001.7
2017-05-11T02:22:18.670Z,1001.67
2017-05-11T02:22:59.238Z,1001.68
2017-05-11T02:23:39.874Z,1001.66
2017-05-11T02:24:20.505Z,1001.63
2017-05-11T02:25:01.126Z,1001.66
2017-05-11T02:25:41.751Z,1001.63
2017-05-11T02:26:22.436Z,1001.61
2017-05-11T02:27:03.036Z,1001.64
2017-05-11T02:27:43.608Z,1001.6
2017-05-11T02:28:24.206Z,1001.59
2017-05-11T02:29:04.789Z,1001.63
2017-05-11T02:29:45.393Z,1001.58
2017-05-11T02:30:25.988Z,1001.58
2017-05-11T02:31:06.610Z,1001.58
2017-05-11T02:31:47.206Z,1001.58
2017-05-11T02:32:27.811Z,1001.58
2017-05-11T02:33:08.388Z,1001.57
2017-05-11T02:33:48.967Z,1001.56
2017-05-11T02:34:29.605Z,1001.51
2017-05-11T02:35:10.194Z,1001.52
2017-05-11T02:35:50.777Z,1001.52
2017-05-11T02:36:31.346Z,1001.5
2017-05-11T02:37:11.931Z,1001.48
2017-05-11T02:37:52.523Z,1001.46
2017-05-11T02:38:33.115Z,1001.46
2017-05-11T02:39:13.750Z,1001.48
2017-05-11T02:39:54.323Z,1001.42
2017-05-11T02:40:34.936Z,1001.42
2017-05-11T02:41:15.549Z,1001.45
2017-05-11T02:41:56.132Z,1001.44
2017-05-11T02:42:36.763Z,1001.38
2017-05-11T02:43:17.354Z,1001.4
2017-05-11T02:43:57.962Z,1001.43
2017-05-11T02:44:38.562Z,1001.43
2017-05-11T02:45:19.176Z,1001.45
2017-05-11T02:45:59.762Z,1001.46
2017-05-11T02:46:40.352Z,1001.48
2017-05-11T02:47:20.959Z,1001.52
2017-05-11T02:48:01.589Z,1001.47
2017-05-11T02:48:42.164Z,1001.5
2017-05-11T02:49:22.775Z,1001.5
2017-05-11T02:50:03.374Z,1001.47
2017-05-11T02:50:43.983Z,1001.49
2017-05-11T02:51:24.589Z,1001.48
2017-05-11T02:52:05.196Z,1001.47
2017-05-11T02:52:45.791Z,1001.45
2017-05-11T02:53:26.409Z,1001.46
2017-05-11T02:54:07.014Z,1001.46
2017-05-11T02:54:47.597Z,1001.41
2017-05-11T02:55:28.228Z,1001.4
2017-05-11T02:56:08.858Z,1001.44
2017-05-11T02:56:49.448Z,1001.4
2017-05-11T02:57:30.055Z,1001.41
2017-05-11T02:58:10.690Z,1001.42
2017-05-11T02:58:51.313Z,1001.4
2017-05-11T02:59:31.929Z,1001.42
2017-05-11T03:00:12.540Z,1001.42
2017-05-11T03:00:53.359Z,1001.41
2017-05-11T03:01:33.971Z,1001.42
2017-05-11T03:02:14.580Z,1001.42
2017-05-11T03:02:55.187Z,1001.42
2017-05-11T03:03:35.804Z,1001.44
2017-05-11T03:04:16.401Z,1001.44
2017-05-11T03:04:57.025Z,1001.43
2017-05-11T03:05:37.650Z,1001.46
2017-05-11T03:06:18.287Z,1001.45
2017-05-11T03:06:58.873Z,1001.45
2017-05-11T03:07:39.466Z,1001.52
2017-05-11T03:08:20.068Z,1001.45
2017-05-11T03:09:00.684Z,1001.45
2017-05-11T03:09:41.288Z,1001.5
2017-05-11T03:10:21.871Z,1001.47
2017-05-11T03:11:02.469Z,1001.49
2017-05-11T03:11:43.049Z,1001.5
2017-05-11T03:12:23.630Z,1001.46
2017-05-11T03:13:04.228Z,1001.52
2017-05-11T03:13:44.810Z,1001.51
2017-05-11T03:14:25.397Z,1001.49
2017-05-11T03:15:05.982Z,1001.55
2017-05-11T03:15:46.571Z,1001.56
2017-05-11T03:16:27.179Z,1001.55
2017-05-11T03:17:07.826Z,1001.53
2017-05-11T03:17:48.413Z,1001.56
2017-05-11T03:18:29.014Z,1001.56
2017-05-11T03:19:09.686Z,1001.56
2017-05-11T03:19:50.306Z,1001.55
2017-05-11T03:20:30.953Z,1001.57
2017-05-11T03:21:11.553Z,1001.51
2017-05-11T03:21:52.162Z,1001.5
2017-05-11T03:22:32.752Z,1001.51
2017-05-11T03:23:13.352Z,1001.48
2017-05-11T03:23:53.970Z,1001.54
2017-05-11T03:24:34.589Z,1001.51
2017-05-11T03:25:15.238Z,1001.53
2017-05-11T03:25:55.839Z,1001.53
2017-05-11T03:26:36.432Z,1001.53
2017-05-11T03:27:17.035Z,1001.53
2017-05-11T03:27:57.630Z,1001.52
2017-05-11T03:28:38.230Z,1001.5
2017-05-11T03:29:18.843Z,1001.52
2017-05-11T03:29:59.432Z,1001.52
2017-05-11T03:30:40.050Z,1001.54
2017-05-11T03:31:20.659Z,1001.53
2017-05-11T03:32:01.286Z,1001.53
2017-05-11T03:34:14.392Z,1001.53
2017-05-11T03:34:54.985Z,1001.53
2017-05-11T03:35:35.585Z,1001.49
2017-05-11T03:36:16.185Z,1001.47
2017-05-11T03:36:56.801Z,1001.46
2017-05-11T03:37:37.419Z,1001.45
2017-05-11T03:38:17.984Z,1001.45
2017-05-11T03:38:58.558Z,1001.43
2017-05-11T03:39:39.164Z,1001.46
2017-05-11T03:40:19.818Z,1001.48
2017-05-11T03:41:00.355Z,1001.45
2017-05-11T03:41:40.980Z,1001.49
2017-05-11T03:42:21.559Z,1001.46
2017-05-11T03:43:02.133Z,1001.46
2017-05-11T03:43:42.722Z,1001.41
2017-05-11T03:44:23.292Z,1001.47
2017-05-11T03:45:03.879Z,1001.44
2017-05-11T03:45:44.481Z,1001.48
2017-05-11T03:46:25.064Z,1001.47
2017-05-11T03:47:05.648Z,1001.48
2017-05-11T03:47:46.240Z,1001.48
2017-05-11T03:48:26.793Z,1001.48
2017-05-11T03:49:07.371Z,1001.5
2017-05-11T03:49:47.986Z,1001.47
2017-05-11T03:50:28.566Z,1001.49
2017-05-11T03:51:09.172Z,1001.47
2017-05-11T03:51:49.782Z,1001.5
2017-05-11T03:52:30.338Z,1001.47
2017-05-11T03:53:10.913Z,1001.46
2017-05-11T03:53:51.509Z,1001.45
2017-05-11T03:54:32.083Z,1001.44
2017-05-11T03:55:12.676Z,1001.44
2017-05-11T03:55:53.255Z,1001.47
2017-05-11T03:56:33.848Z,1001.48
2017-05-11T03:57:14.488Z,1001.51
2017-05-11T03:57:55.104Z,1001.53
2017-05-11T03:58:35.714Z,1001.51
2017-05-11T03:59:16.287Z,1001.52
2017-05-11T03:59:56.878Z,1001.53
2017-05-11T04:00:37.441Z,1001.53
2017-05-11T04:01:18.035Z,1001.54
2017-05-11T04:01:58.654Z,1001.56
2017-05-11T04:02:39.245Z,1001.53
2017-05-11T04:03:19.834Z,1001.54
2017-05-11T04:04:00.399Z,1001.56
2017-05-11T04:04:41.021Z,1001.53
2017-05-11T04:05:21.590Z,1001.52
2017-05-11T04:06:02.175Z,1001.56
2017-05-11T04:06:42.766Z,1001.58
2017-05-11T04:07:23.357Z,1001.54
2017-05-11T04:08:03.940Z,1001.57
2017-05-11T04:08:44.521Z,1001.55
2017-05-11T04:09:25.113Z,1001.55
2017-05-11T04:10:05.745Z,1001.54
2017-05-11T04:10:46.323Z,1001.56
2017-05-11T04:11:26.985Z,1001.56
2017-05-11T04:12:07.559Z,1001.51
2017-05-11T04:12:48.098Z,1001.56
2017-05-11T04:13:28.754Z,1001.54
2017-05-11T04:14:09.349Z,1001.57
2017-05-11T04:14:49.928Z,1001.59
2017-05-11T04:15:30.501Z,1001.59
2017-05-11T04:16:11.068Z,1001.59
2017-05-11T04:16:51.651Z,1001.58
2017-05-11T04:17:32.251Z,1001.61
2017-05-11T04:18:12.853Z,1001.61
2017-05-11T04:18:53.442Z,1001.54
2017-05-11T04:19:34.046Z,1001.53
2017-05-11T04:20:14.631Z,1001.61
2017-05-11T04:20:55.214Z,1001.58
2017-05-11T04:21:35.773Z,1001.63
2017-05-11T04:22:16.405Z,1001.57
2017-05-11T04:22:56.978Z,1001.55
2017-05-11T04:23:37.564Z,1001.59
2017-05-11T04:24:18.257Z,1001.61
2017-05-11T04:24:58.840Z,1001.6
2017-05-11T04:25:39.425Z,1001.58
2017-05-11T04:26:20.022Z,1001.59
2017-05-11T04:27:00.606Z,1001.58
2017-05-11T04:27:41.203Z,1001.61
2017-05-11T04:28:21.790Z,1001.6
2017-05-11T04:29:02.422Z,1001.6
2017-05-11T04:29:43.028Z,1001.61
2017-05-11T04:30:23.605Z,1001.58
2017-05-11T04:31:04.200Z,1001.61
2017-05-11T04:31:44.766Z,1001.61
2017-05-11T04:32:25.337Z,1001.63
2017-05-11T04:33:05.922Z,1001.62
2017-05-11T04:33:46.523Z,1001.61
2017-05-11T04:34:27.112Z,1001.69
2017-05-11T04:35:07.701Z,1001.65
2017-05-11T04:35:48.299Z,1001.65
2017-05-11T04:36:28.873Z,1001.64
2017-05-11T04:37:09.449Z,1001.65
2017-05-11T04:37:50.020Z,1001.65
2017-05-11T04:38:30.655Z,1001.66
2017-05-11T04:39:11.290Z,1001.67
2017-05-11T04:39:51.888Z,1001.66
2017-05-11T04:40:32.483Z,1001.66
2017-05-11T04:41:13.081Z,1001.66
2017-05-11T04:41:53.647Z,1001.65
2017-05-11T04:42:34.215Z,1001.66
2017-05-11T04:43:14.801Z,1001.64
2017-05-11T04:43:55.387Z,1001.65
2017-05-11T04:44:35.972Z,1001.65
2017-05-11T04:45:16.541Z,1001.66
2017-05-11T04:45:57.160Z,1001.61
2017-05-11T04:46:37.814Z,1001.69
2017-05-11T04:48:30.694Z,1001.67
2017-05-11T04:50:28.373Z,1001.7
2017-05-11T04:51:08.951Z,1001.71
2017-05-11T04:51:49.525Z,1001.77
2017-05-11T04:52:30.118Z,1001.68
2017-05-11T04:53:10.686Z,1001.69
2017-05-11T04:53:51.307Z,1001.7
2017-05-11T04:54:31.877Z,1001.72
2017-05-11T04:55:12.455Z,1001.68
2017-05-11T04:55:53.014Z,1001.7
2017-05-11T04:56:33.664Z,1001.7
2017-05-11T04:57:14.316Z,1001.67
2017-05-11T04:57:54.978Z,1001.68
2017-05-11T04:58:35.609Z,1001.7
2017-05-11T04:59:16.202Z,1001.72
2017-05-11T04:59:56.820Z,1001.71
2017-05-11T05:00:37.392Z,1001.77
2017-05-11T05:01:17.961Z,1001.73
2017-05-11T05:01:58.570Z,1001.71
2017-05-11T05:02:39.177Z,1001.78
2017-05-11T05:03:19.762Z,1001.78
2017-05-11T05:04:00.351Z,1001.77
2017-05-11T05:04:40.998Z,1001.79
2017-05-11T05:05:21.636Z,1001.77
2017-05-11T05:06:02.348Z,1001.8
2017-05-11T05:06:42.959Z,1001.82
2017-05-11T05:07:23.549Z,1001.8
2017-05-11T05:08:04.134Z,1001.81
2017-05-11T05:08:44.737Z,1001.83
2017-05-11T05:09:25.323Z,1001.83
2017-05-11T05:10:06.038Z,1001.84
2017-05-11T05:10:46.670Z,1001.82
2017-05-11T05:11:27.299Z,1001.81
2017-05-11T05:12:07.901Z,1001.84
2017-05-11T05:12:48.462Z,1001.81
2017-05-11T05:13:29.131Z,1001.86
2017-05-11T05:14:09.701Z,1001.8
2017-05-11T05:14:50.299Z,1001.81
2017-05-11T05:15:30.875Z,1001.82
2017-05-11T05:16:11.493Z,1001.85
2017-05-11T05:16:52.087Z,1001.87
2017-05-11T05:17:32.666Z,1001.9
2017-05-11T05:18:13.252Z,1001.87
2017-05-11T05:18:53.873Z,1001.88
2017-05-11T05:19:34.456Z,1001.84
2017-05-11T05:20:15.042Z,1001.89
2017-05-11T05:20:55.675Z,1001.9
2017-05-11T05:21:36.282Z,1001.88
2017-05-11T05:22:16.950Z,1001.9
2017-05-11T05:22:57.543Z,1001.9
2017-05-11T05:23:38.136Z,1001.86
2017-05-11T05:24:18.731Z,1001.86
2017-05-11T05:24:59.323Z,1001.82
2017-05-11T05:25:39.905Z,1001.9
2017-05-11T05:26:20.515Z,1001.82
2017-05-11T05:27:01.099Z,1001.84
2017-05-11T05:27:41.711Z,1001.86
2017-05-11T05:28:22.300Z,1001.86
2017-05-11T05:29:02.912Z,1001.85
2017-05-11T05:29:43.509Z,1001.87
2017-05-11T05:30:24.108Z,1001.84
2017-05-11T05:31:04.713Z,1001.86
2017-05-11T05:31:45.302Z,1001.91
2017-05-11T05:32:25.933Z,1001.94
2017-05-11T05:33:06.518Z,1001.92
2017-05-11T05:33:47.168Z,1001.93
2017-05-11T05:34:27.785Z,1001.94
2017-05-11T05:35:08.390Z,1001.96
2017-05-11T05:35:48.990Z,1002
2017-05-11T05:36:29.564Z,1002.08
2017-05-11T05:37:10.133Z,1002.16
2017-05-11T05:37:50.736Z,1002.18
2017-05-11T05:38:31.478Z,1002.2
2017-05-11T05:39:12.049Z,1002.18
2017-05-11T05:39:52.667Z,1002.24
2017-05-11T05:40:33.282Z,1002.25
2017-05-11T05:41:13.876Z,1002.24
2017-05-11T05:41:54.453Z,1002.34
2017-05-11T05:42:35.160Z,1002.36
2017-05-11T05:43:15.698Z,1002.4
2017-05-11T05:43:56.329Z,1002.41
2017-05-11T05:44:36.894Z,1002.44
2017-05-11T05:45:17.552Z,1002.42
2017-05-11T05:45:58.146Z,1002.45
2017-05-11T05:46:38.741Z,1002.51
2017-05-11T05:47:19.346Z,1002.51
2017-05-11T05:47:59.930Z,1002.49
2017-05-11T05:48:40.573Z,1002.53
2017-05-11T05:49:21.177Z,1002.54
2017-05-11T05:50:01.759Z,1002.55
2017-05-11T05:50:42.383Z,1002.53
2017-05-11T05:51:23.011Z,1002.55
2017-05-11T05:52:03.594Z,1002.52
2017-05-11T05:52:44.164Z,1002.52
2017-05-11T05:53:24.805Z,1002.52
2017-05-11T05:54:05.448Z,1002.46
2017-05-11T05:54:46.054Z,1002.5
2017-05-11T05:55:26.702Z,1002.49
2017-05-11T05:56:07.352Z,1002.49
2017-05-11T05:56:47.991Z,1002.45
2017-05-11T05:57:28.628Z,1002.54
2017-05-11T05:58:09.228Z,1002.56
2017-05-11T05:58:49.889Z,1002.64
2017-05-11T05:59:30.536Z,1002.71
2017-05-11T06:00:11.188Z,1002.62
2017-05-11T06:00:51.815Z,1002.64
2017-05-11T06:01:32.436Z,1002.76
2017-05-11T06:02:13.127Z,1002.81
2017-05-11T06:02:53.729Z,1002.82
2017-05-11T06:03:34.313Z,1002.85
2017-05-11T06:04:14.961Z,1002.92
2017-05-11T06:04:55.560Z,1002.93
2017-05-11T06:05:36.169Z,1002.78
2017-05-11T06:06:16.777Z,1002.69
2017-05-11T06:06:57.375Z,1002.56
2017-05-11T06:07:38.003Z,1002.47
2017-05-11T06:08:18.601Z,1002.38
2017-05-11T06:08:59.217Z,1002.32
2017-05-11T06:09:39.853Z,1002.27
2017-05-11T06:10:20.501Z,1002.26
2017-05-11T06:11:01.130Z,1002.28
2017-05-11T06:11:41.722Z,1002.32
2017-05-11T06:12:22.347Z,1002.24
2017-05-11T06:13:02.924Z,1002.3
2017-05-11T06:13:43.549Z,1002.27
2017-05-11T06:14:24.161Z,1002.26
2017-05-11T06:15:04.762Z,1002.31
2017-05-11T06:15:45.362Z,1002.28
2017-05-11T06:16:25.964Z,1002.29
2017-05-11T06:17:06.595Z,1002.32
2017-05-11T06:17:47.190Z,1002.31
2017-05-11T06:18:27.868Z,1002.33
2017-05-11T06:19:08.468Z,1002.33
2017-05-11T06:19:49.070Z,1002.36
2017-05-11T06:20:29.688Z,1002.37
2017-05-11T06:21:10.304Z,1002.4
2017-05-11T06:21:50.979Z,1002.37
2017-05-11T06:22:31.570Z,1002.39
2017-05-11T06:23:12.203Z,1002.37
2017-05-11T06:23:52.837Z,1002.38
2017-05-11T06:24:33.429Z,1002.46
2017-05-11T06:25:14.063Z,1002.51
2017-05-11T06:25:54.668Z,1002.58
2017-05-11T06:26:35.274Z,1002.54
2017-05-11T06:27:15.874Z,1002.43
2017-05-11T06:27:56.666Z,1002.38
2017-05-11T06:28:37.280Z,1002.37
2017-05-11T06:29:17.878Z,1002.35
2017-05-11T06:29:58.488Z,1002.36
2017-05-11T06:30:39.076Z,1002.37
2017-05-11T06:31:19.684Z,1002.41
2017-05-11T06:32:00.302Z,1002.41
2017-05-11T06:32:40.967Z,1002.36
2017-05-11T06:33:21.602Z,1002.39
2017-05-11T06:34:02.198Z,1002.43
2017-05-11T06:34:42.782Z,1002.39
2017-05-11T06:35:23.473Z,1002.41
2017-05-11T06:36:04.026Z,1002.42
2017-05-11T06:36:44.632Z,1002.47
2017-05-11T06:37:25.241Z,1002.44
2017-05-11T06:38:05.861Z,1002.47
2017-05-11T06:38:46.475Z,1002.44
2017-05-11T06:39:27.086Z,1002.41
2017-05-11T06:40:07.696Z,1002.45
2017-05-11T06:40:48.299Z,1002.42
2017-05-11T06:41:28.885Z,1002.48
2017-05-11T06:42:09.501Z,1002.49
2017-05-11T06:42:50.122Z,1002.46
2017-05-11T06:43:30.761Z,1002.46
2017-05-11T06:44:11.365Z,1002.45
2017-05-11T06:44:51.997Z,1002.46
2017-05-11T06:45:32.567Z,1002.5
2017-05-11T06:46:13.202Z,1002.46
2017-05-11T06:46:53.842Z,1002.43
2017-05-11T06:47:34.445Z,1002.44
2017-05-11T06:48:15.034Z,1002.44
2017-05-11T06:48:55.658Z,1002.4
2017-05-11T06:49:36.237Z,1002.39
2017-05-11T06:50:16.819Z,1002.43
2017-05-11T06:50:57.395Z,1002.44
2017-05-11T06:51:37.974Z,1002.45
2017-05-11T06:52:18.599Z,1002.43
2017-05-11T06:52:59.208Z,1002.47
2017-05-11T06:53:39.802Z,1002.45
2017-05-11T06:54:20.393Z,1002.44
2017-05-11T06:55:00.974Z,1002.44
2017-05-11T06:55:41.562Z,1002.43
2017-05-11T06:56:22.159Z,1002.42
2017-05-11T06:57:02.743Z,1002.4
2017-05-11T06:57:43.331Z,1002.45
2017-05-11T06:58:24.046Z,1002.44
2017-05-11T06:59:04.692Z,1002.41
2017-05-11T06:59:45.293Z,1002.43
2017-05-11T07:00:25.888Z,1002.41
2017-05-11T07:01:06.473Z,1002.39
2017-05-11T07:01:47.089Z,1002.43
2017-05-11T07:02:27.700Z,1002.44
2017-05-11T07:03:08.309Z,1002.41
2017-05-11T07:03:48.892Z,1002.41
2017-05-11T07:04:29.469Z,1002.41
2017-05-11T07:05:10.050Z,1002.42
2017-05-11T07:05:50.689Z,1002.41
2017-05-11T07:06:31.295Z,1002.43
2017-05-11T07:07:11.896Z,1002.45
2017-05-11T07:07:52.495Z,1002.42
2017-05-11T07:08:33.108Z,1002.45
2017-05-11T07:09:13.711Z,1002.45
2017-05-11T07:09:54.316Z,1002.43
2017-05-11T07:10:34.916Z,1002.47
2017-05-11T07:11:15.508Z,1002.46
2017-05-11T07:11:56.085Z,1002.48
2017-05-11T07:12:36.696Z,1002.45
2017-05-11T07:13:17.309Z,1002.43
2017-05-11T07:13:57.931Z,1002.43
2017-05-11T07:14:38.549Z,1002.47
2017-05-11T07:15:19.161Z,1002.46
2017-05-11T07:15:59.747Z,1002.41
2017-05-11T07:16:40.310Z,1002.44
2017-05-11T07:17:20.902Z,1002.4
2017-05-11T07:18:01.515Z,1002.4
2017-05-11T07:18:42.112Z,1002.38
2017-05-11T07:19:22.685Z,1002.38
2017-05-11T07:20:03.295Z,1002.39
2017-05-11T07:20:43.904Z,1002.37
2017-05-11T07:21:24.501Z,1002.39
2017-05-11T07:22:05.080Z,1002.36
2017-05-11T07:22:45.680Z,1002.42
2017-05-11T07:23:26.262Z,1002.4
2017-05-11T07:24:06.858Z,1002.4
2017-05-11T07:24:47.431Z,1002.39
2017-05-11T07:25:28.057Z,1002.36
2017-05-11T07:26:08.638Z,1002.4
2017-05-11T07:26:49.227Z,1002.4
2017-05-11T07:27:29.852Z,1002.4
2017-05-11T07:28:10.435Z,1002.43
2017-05-11T07:28:51.014Z,1002.44
2017-05-11T07:29:31.611Z,1002.4
2017-05-11T07:30:12.188Z,1002.47
2017-05-11T07:30:52.779Z,1002.43
2017-05-11T07:31:33.368Z,1002.48
2017-05-11T07:32:13.985Z,1002.45
2017-05-11T07:32:54.569Z,1002.42
2017-05-11T07:33:35.155Z,1002.43
2017-05-11T07:34:15.738Z,1002.4
2017-05-11T07:34:56.344Z,1002.42
2017-05-11T07:35:36.964Z,1002.39
2017-05-11T07:36:17.586Z,1002.37
2017-05-11T07:36:58.207Z,1002.43
2017-05-11T07:37:38.806Z,1002.36
2017-05-11T07:38:19.404Z,1002.34
2017-05-11T07:39:00.006Z,1002.31
2017-05-11T07:39:40.615Z,1002.32
2017-05-11T07:40:21.246Z,1002.32
2017-05-11T07:41:01.818Z,1002.32
2017-05-11T07:41:42.405Z,1002.34
2017-05-11T07:42:22.991Z,1002.32
2017-05-11T07:43:03.591Z,1002.32
2017-05-11T07:43:44.235Z,1002.3
2017-05-11T07:44:24.832Z,1002.34
2017-05-11T07:45:05.414Z,1002.31
2017-05-11T07:45:46.046Z,1002.28
2017-05-11T07:46:26.617Z,1002.34
2017-05-11T07:47:07.204Z,1002.3
2017-05-11T07:47:47.795Z,1002.32
2017-05-11T07:48:28.415Z,1002.28
2017-05-11T07:49:09.004Z,1002.29
2017-05-11T07:49:49.716Z,1002.27
2017-05-11T07:50:30.299Z,1002.3
2017-05-11T07:51:10.912Z,1002.29
2017-05-11T07:51:51.520Z,1002.29
2017-05-11T07:52:32.126Z,1002.28
2017-05-11T07:53:12.709Z,1002.28
2017-05-11T07:53:53.288Z,1002.27
2017-05-11T07:54:33.884Z,1002.3
2017-05-11T07:55:14.481Z,1002.31
2017-05-11T07:55:55.085Z,1002.31
2017-05-11T07:56:35.707Z,1002.32
2017-05-11T07:57:16.277Z,1002.31
2017-05-11T07:57:56.950Z,1002.28
2017-05-11T07:58:37.554Z,1002.36
2017-05-11T07:59:18.146Z,1002.32
2017-05-11T07:59:58.791Z,1002.34
2017-05-11T08:00:39.366Z,1002.3
2017-05-11T08:01:19.968Z,1002.3
2017-05-11T08:02:00.588Z,1002.28
2017-05-11T08:02:41.201Z,1002.27
2017-05-11T08:03:21.807Z,1002.34
2017-05-11T08:04:02.413Z,1002.28
2017-05-11T08:04:43.004Z,1002.27
2017-05-11T08:05:23.591Z,1002.26
2017-05-11T08:06:04.185Z,1002.24
2017-05-11T08:06:44.843Z,1002.22
2017-05-11T08:07:25.441Z,1002.17
2017-05-11T08:08:06.031Z,1002.2
2017-05-11T08:08:46.628Z,1002.18
2017-05-11T08:09:27.210Z,1002.16
2017-05-11T08:10:07.795Z,1002.16
2017-05-11T08:10:48.394Z,1002.17
2017-05-11T08:11:28.993Z,1002.1
2017-05-11T08:12:09.594Z,1002.13
2017-05-11T08:12:50.266Z,1002.14
2017-05-11T08:13:30.862Z,1002.12
2017-05-11T08:14:11.471Z,1002.08
2017-05-11T08:14:52.055Z,1002.09
2017-05-11T08:15:32.716Z,1002.08
2017-05-11T08:16:13.352Z,1002.08
2017-05-11T08:16:53.957Z,1002.08